sensor_id;sensor_type;location;lat;lon;timestamp;P1;durP1;ratioP1;P2;durP2;ratioP2
66546;SDS011;53400;50.364;14.874;2023-03-14T00:02:01;17.80;;;9.45;;
66546;SDS011;53400;50.364;14.874;2023-03-14T00:04:26;13.70;;;8.02;;
66546;SDS011;53400;50.364;14.874;2023-03-14T00:06:52;12.38;;;7.45;;
66546;SDS011;53400;50.364;14.874;2023-03-14T00:09:19;13.48;;;7.75;;
66546;SDS011;53400;50.364;14.874;2023-03-14T00:11:45;18.67;;;9.45;;
66546;SDS011;53400;50.364;14.874;2023-03-14T00:14:11;13.43;;;7.68;;
66546;SDS011;53400;50.364;14.874;2023-03-14T00:16:37;13.70;;;8.38;;
66546;SDS011;53400;50.364;14.874;2023-03-14T00:19:03;13.77;;;8.02;;
66546;SDS011;53400;50.364;14.874;2023-03-14T00:21:29;16.05;;;8.70;;
66546;SDS011;53400;50.364;14.874;2023-03-14T00:23:55;13.85;;;7.47;;
66546;SDS011;53400;50.364;14.874;2023-03-14T00:26:22;14.25;;;7.85;;
66546;SDS011;53400;50.364;14.874;2023-03-14T00:28:50;15.63;;;8.40;;
66546;SDS011;53400;50.364;14.874;2023-03-14T00:31:17;15.63;;;9.77;;
66546;SDS011;53400;50.364;14.874;2023-03-14T00:33:43;16.48;;;9.90;;
66546;SDS011;53400;50.364;14.874;2023-03-14T00:36:10;17.75;;;9.35;;
66546;SDS011;53400;50.364;14.874;2023-03-14T00:38:38;13.13;;;7.97;;
66546;SDS011;53400;50.364;14.874;2023-03-14T00:41:05;13.82;;;8.18;;
66546;SDS011;53400;50.364;14.874;2023-03-14T00:43:34;13.77;;;7.72;;
66546;SDS011;53400;50.364;14.874;2023-03-14T00:46:00;11.70;;;6.70;;
66546;SDS011;53400;50.364;14.874;2023-03-14T00:48:26;13.23;;;7.47;;
66546;SDS011;53400;50.364;14.874;2023-03-14T00:50:52;11.13;;;7.05;;
66546;SDS011;53400;50.364;14.874;2023-03-14T00:53:18;12.10;;;6.60;;
66546;SDS011;53400;50.364;14.874;2023-03-14T00:55:44;10.27;;;6.35;;
66546;SDS011;53400;50.364;14.874;2023-03-14T00:58:11;10.55;;;5.82;;
66546;SDS011;53400;50.364;14.874;2023-03-14T01:00:38;10.93;;;6.30;;
66546;SDS011;53400;50.364;14.874;2023-03-14T01:03:05;11.68;;;7.05;;
66546;SDS011;53400;50.364;14.874;2023-03-14T01:05:31;11.02;;;6.80;;
66546;SDS011;53400;50.364;14.874;2023-03-14T01:07:57;14.18;;;7.60;;
66546;SDS011;53400;50.364;14.874;2023-03-14T01:10:24;10.23;;;6.45;;
66546;SDS011;53400;50.364;14.874;2023-03-14T01:12:49;11.90;;;6.80;;
66546;SDS011;53400;50.364;14.874;2023-03-14T01:15:16;12.50;;;7.43;;
66546;SDS011;53400;50.364;14.874;2023-03-14T01:17:43;11.45;;;6.60;;
66546;SDS011;53400;50.364;14.874;2023-03-14T01:20:10;13.52;;;6.18;;
66546;SDS011;53400;50.364;14.874;2023-03-14T01:22:37;12.15;;;6.85;;
66546;SDS011;53400;50.364;14.874;2023-03-14T01:25:07;13.18;;;7.53;;
66546;SDS011;53400;50.364;14.874;2023-03-14T01:27:35;12.57;;;6.95;;
66546;SDS011;53400;50.364;14.874;2023-03-14T01:30:01;11.68;;;6.80;;
66546;SDS011;53400;50.364;14.874;2023-03-14T01:32:27;10.80;;;6.47;;
66546;SDS011;53400;50.364;14.874;2023-03-14T01:34:54;11.05;;;6.30;;
66546;SDS011;53400;50.364;14.874;2023-03-14T01:37:20;11.35;;;6.63;;
66546;SDS011;53400;50.364;14.874;2023-03-14T01:39:46;11.35;;;6.35;;
66546;SDS011;53400;50.364;14.874;2023-03-14T01:42:12;9.93;;;6.10;;
66546;SDS011;53400;50.364;14.874;2023-03-14T01:47:23;12.18;;;4.70;;
66546;SDS011;53400;50.364;14.874;2023-03-14T01:49:50;11.02;;;6.40;;
66546;SDS011;53400;50.364;14.874;2023-03-14T01:52:21;12.27;;;6.43;;
66546;SDS011;53400;50.364;14.874;2023-03-14T01:54:51;14.07;;;6.53;;
66546;SDS011;53400;50.364;14.874;2023-03-14T01:57:20;11.70;;;6.50;;
66546;SDS011;53400;50.364;14.874;2023-03-14T01:59:48;12.32;;;6.30;;
66546;SDS011;53400;50.364;14.874;2023-03-14T02:02:19;10.93;;;6.60;;
66546;SDS011;53400;50.364;14.874;2023-03-14T02:04:46;10.60;;;6.10;;
66546;SDS011;53400;50.364;14.874;2023-03-14T02:07:12;11.23;;;6.43;;
66546;SDS011;53400;50.364;14.874;2023-03-14T02:09:42;11.63;;;6.38;;
66546;SDS011;53400;50.364;14.874;2023-03-14T02:12:09;10.48;;;6.50;;
66546;SDS011;53400;50.364;14.874;2023-03-14T02:14:39;10.60;;;6.13;;
66546;SDS011;53400;50.364;14.874;2023-03-14T02:17:07;11.32;;;6.75;;
66546;SDS011;53400;50.364;14.874;2023-03-14T02:19:41;11.32;;;6.45;;
66546;SDS011;53400;50.364;14.874;2023-03-14T02:22:19;12.85;;;6.82;;
66546;SDS011;53400;50.364;14.874;2023-03-14T02:24:48;10.40;;;6.03;;
66546;SDS011;53400;50.364;14.874;2023-03-14T02:27:24;11.25;;;6.22;;
66546;SDS011;53400;50.364;14.874;2023-03-14T02:29:52;11.43;;;7.22;;
66546;SDS011;53400;50.364;14.874;2023-03-14T02:32:22;14.30;;;6.60;;
66546;SDS011;53400;50.364;14.874;2023-03-14T02:34:51;12.82;;;7.05;;
66546;SDS011;53400;50.364;14.874;2023-03-14T02:37:20;10.85;;;6.43;;
66546;SDS011;53400;50.364;14.874;2023-03-14T02:39:48;13.45;;;7.35;;
66546;SDS011;53400;50.364;14.874;2023-03-14T02:42:15;10.68;;;6.60;;
66546;SDS011;53400;50.364;14.874;2023-03-14T02:44:49;11.48;;;6.93;;
66546;SDS011;53400;50.364;14.874;2023-03-14T02:47:17;11.85;;;7.20;;
66546;SDS011;53400;50.364;14.874;2023-03-14T02:49:45;11.95;;;6.93;;
66546;SDS011;53400;50.364;14.874;2023-03-14T02:52:11;12.52;;;7.60;;
66546;SDS011;53400;50.364;14.874;2023-03-14T02:54:38;12.73;;;7.40;;
66546;SDS011;53400;50.364;14.874;2023-03-14T02:57:03;11.82;;;7.22;;
66546;SDS011;53400;50.364;14.874;2023-03-14T02:59:29;14.32;;;7.57;;
66546;SDS011;53400;50.364;14.874;2023-03-14T03:01:56;13.10;;;7.28;;
66546;SDS011;53400;50.364;14.874;2023-03-14T03:04:24;12.30;;;7.43;;
66546;SDS011;53400;50.364;14.874;2023-03-14T03:06:50;11.23;;;7.18;;
66546;SDS011;53400;50.364;14.874;2023-03-14T03:09:16;13.07;;;7.70;;
66546;SDS011;53400;50.364;14.874;2023-03-14T03:11:42;11.85;;;6.70;;
66546;SDS011;53400;50.364;14.874;2023-03-14T03:14:08;13.50;;;7.40;;
66546;SDS011;53400;50.364;14.874;2023-03-14T03:16:33;13.18;;;7.20;;
66546;SDS011;53400;50.364;14.874;2023-03-14T03:19:01;12.73;;;6.82;;
66546;SDS011;53400;50.364;14.874;2023-03-14T03:21:27;12.48;;;7.07;;
66546;SDS011;53400;50.364;14.874;2023-03-14T03:23:52;12.05;;;7.03;;
66546;SDS011;53400;50.364;14.874;2023-03-14T03:26:18;11.88;;;7.55;;
66546;SDS011;53400;50.364;14.874;2023-03-14T03:28:44;14.68;;;6.85;;
66546;SDS011;53400;50.364;14.874;2023-03-14T03:31:10;14.43;;;8.60;;
66546;SDS011;53400;50.364;14.874;2023-03-14T03:33:37;15.18;;;8.00;;
66546;SDS011;53400;50.364;14.874;2023-03-14T03:36:05;12.18;;;7.20;;
66546;SDS011;53400;50.364;14.874;2023-03-14T03:38:32;13.43;;;7.57;;
66546;SDS011;53400;50.364;14.874;2023-03-14T03:40:58;13.70;;;7.47;;
66546;SDS011;53400;50.364;14.874;2023-03-14T03:43:27;13.50;;;7.38;;
66546;SDS011;53400;50.364;14.874;2023-03-14T03:45:52;12.90;;;7.05;;
66546;SDS011;53400;50.364;14.874;2023-03-14T03:48:18;10.90;;;6.72;;
66546;SDS011;53400;50.364;14.874;2023-03-14T03:50:45;12.93;;;7.00;;
66546;SDS011;53400;50.364;14.874;2023-03-14T03:53:12;11.50;;;6.65;;
66546;SDS011;53400;50.364;14.874;2023-03-14T03:55:40;14.23;;;7.43;;
66546;SDS011;53400;50.364;14.874;2023-03-14T03:58:06;12.25;;;7.15;;
66546;SDS011;53400;50.364;14.874;2023-03-14T04:00:32;11.27;;;6.55;;
66546;SDS011;53400;50.364;14.874;2023-03-14T04:02:58;13.05;;;7.00;;
66546;SDS011;53400;50.364;14.874;2023-03-14T04:05:25;9.98;;;6.30;;
66546;SDS011;53400;50.364;14.874;2023-03-14T04:07:50;11.15;;;6.80;;
66546;SDS011;53400;50.364;14.874;2023-03-14T04:10:18;11.15;;;6.45;;
66546;SDS011;53400;50.364;14.874;2023-03-14T04:12:44;10.88;;;6.55;;
66546;SDS011;53400;50.364;14.874;2023-03-14T04:15:10;13.90;;;6.80;;
66546;SDS011;53400;50.364;14.874;2023-03-14T04:17:36;10.32;;;6.43;;
66546;SDS011;53400;50.364;14.874;2023-03-14T04:20:02;10.90;;;6.72;;
66546;SDS011;53400;50.364;14.874;2023-03-14T04:22:30;10.77;;;6.13;;
66546;SDS011;53400;50.364;14.874;2023-03-14T04:24:55;11.93;;;6.95;;
66546;SDS011;53400;50.364;14.874;2023-03-14T04:27:23;11.00;;;6.25;;
66546;SDS011;53400;50.364;14.874;2023-03-14T04:29:48;13.25;;;6.57;;
66546;SDS011;53400;50.364;14.874;2023-03-14T04:32:14;12.73;;;6.60;;
66546;SDS011;53400;50.364;14.874;2023-03-14T04:34:40;11.85;;;6.65;;
66546;SDS011;53400;50.364;14.874;2023-03-14T04:37:07;10.45;;;6.68;;
66546;SDS011;53400;50.364;14.874;2023-03-14T04:39:32;10.38;;;6.60;;
66546;SDS011;53400;50.364;14.874;2023-03-14T04:41:58;11.45;;;6.43;;
66546;SDS011;53400;50.364;14.874;2023-03-14T04:44:26;13.02;;;6.75;;
66546;SDS011;53400;50.364;14.874;2023-03-14T04:46:52;11.57;;;6.28;;
66546;SDS011;53400;50.364;14.874;2023-03-14T04:49:17;13.90;;;7.30;;
66546;SDS011;53400;50.364;14.874;2023-03-14T04:51:44;11.25;;;6.70;;
66546;SDS011;53400;50.364;14.874;2023-03-14T04:54:09;12.27;;;6.75;;
66546;SDS011;53400;50.364;14.874;2023-03-14T04:56:35;10.95;;;7.00;;
66546;SDS011;53400;50.364;14.874;2023-03-14T04:59:02;11.77;;;7.00;;
66546;SDS011;53400;50.364;14.874;2023-03-14T05:01:32;13.15;;;6.75;;
66546;SDS011;53400;50.364;14.874;2023-03-14T05:03:58;10.75;;;6.18;;
66546;SDS011;53400;50.364;14.874;2023-03-14T05:06:24;12.43;;;6.15;;
66546;SDS011;53400;50.364;14.874;2023-03-14T05:08:50;10.05;;;5.90;;
66546;SDS011;53400;50.364;14.874;2023-03-14T05:11:16;11.43;;;6.22;;
66546;SDS011;53400;50.364;14.874;2023-03-14T05:13:41;9.82;;;6.47;;
66546;SDS011;53400;50.364;14.874;2023-03-14T05:16:08;11.98;;;6.55;;
66546;SDS011;53400;50.364;14.874;2023-03-14T05:18:37;10.68;;;6.38;;
66546;SDS011;53400;50.364;14.874;2023-03-14T05:21:03;10.55;;;5.95;;
66546;SDS011;53400;50.364;14.874;2023-03-14T05:23:29;11.93;;;6.30;;
66546;SDS011;53400;50.364;14.874;2023-03-14T05:25:55;11.38;;;5.75;;
66546;SDS011;53400;50.364;14.874;2023-03-14T05:28:21;13.00;;;6.13;;
66546;SDS011;53400;50.364;14.874;2023-03-14T05:30:47;10.60;;;6.00;;
66546;SDS011;53400;50.364;14.874;2023-03-14T05:33:13;9.98;;;5.75;;
66546;SDS011;53400;50.364;14.874;2023-03-14T05:35:40;11.00;;;5.88;;
66546;SDS011;53400;50.364;14.874;2023-03-14T05:38:07;10.63;;;5.78;;
66546;SDS011;53400;50.364;14.874;2023-03-14T05:40:33;9.70;;;5.47;;
66546;SDS011;53400;50.364;14.874;2023-03-14T05:42:59;11.10;;;5.65;;
66546;SDS011;53400;50.364;14.874;2023-03-14T05:45:25;12.02;;;5.13;;
66546;SDS011;53400;50.364;14.874;2023-03-14T05:47:51;8.07;;;4.38;;
66546;SDS011;53400;50.364;14.874;2023-03-14T05:50:17;7.93;;;3.78;;
66546;SDS011;53400;50.364;14.874;2023-03-14T05:52:44;8.43;;;4.63;;
66546;SDS011;53400;50.364;14.874;2023-03-14T05:55:10;7.55;;;3.75;;
66546;SDS011;53400;50.364;14.874;2023-03-14T05:57:36;8.02;;;4.13;;
66546;SDS011;53400;50.364;14.874;2023-03-14T06:00:02;8.27;;;3.50;;
66546;SDS011;53400;50.364;14.874;2023-03-14T06:02:28;8.85;;;4.10;;
66546;SDS011;53400;50.364;14.874;2023-03-14T06:04:54;7.47;;;4.07;;
66546;SDS011;53400;50.364;14.874;2023-03-14T06:07:20;8.27;;;4.55;;
66546;SDS011;53400;50.364;14.874;2023-03-14T06:09:47;8.80;;;5.40;;
66546;SDS011;53400;50.364;14.874;2023-03-14T06:12:13;13.02;;;7.20;;
66546;SDS011;53400;50.364;14.874;2023-03-14T06:14:39;11.23;;;6.53;;
66546;SDS011;53400;50.364;14.874;2023-03-14T06:17:05;11.73;;;6.88;;
66546;SDS011;53400;50.364;14.874;2023-03-14T06:19:31;10.85;;;6.20;;
66546;SDS011;53400;50.364;14.874;2023-03-14T06:21:57;11.80;;;7.22;;
66546;SDS011;53400;50.364;14.874;2023-03-14T06:24:23;12.38;;;6.70;;
66546;SDS011;53400;50.364;14.874;2023-03-14T06:26:50;11.70;;;6.47;;
66546;SDS011;53400;50.364;14.874;2023-03-14T06:29:17;11.38;;;6.50;;
66546;SDS011;53400;50.364;14.874;2023-03-14T06:31:43;11.68;;;6.82;;
66546;SDS011;53400;50.364;14.874;2023-03-14T06:34:09;11.20;;;5.78;;
66546;SDS011;53400;50.364;14.874;2023-03-14T06:36:34;8.15;;;5.10;;
66546;SDS011;53400;50.364;14.874;2023-03-14T06:39:00;7.63;;;4.10;;
66546;SDS011;53400;50.364;14.874;2023-03-14T06:41:26;9.18;;;4.63;;
66546;SDS011;53400;50.364;14.874;2023-03-14T06:43:54;9.23;;;4.70;;
66546;SDS011;53400;50.364;14.874;2023-03-14T06:46:20;9.57;;;4.53;;
66546;SDS011;53400;50.364;14.874;2023-03-14T06:48:46;7.57;;;3.80;;
66546;SDS011;53400;50.364;14.874;2023-03-14T06:51:11;7.82;;;4.43;;
66546;SDS011;53400;50.364;14.874;2023-03-14T06:53:37;9.00;;;4.30;;
66546;SDS011;53400;50.364;14.874;2023-03-14T06:56:03;7.63;;;3.58;;
66546;SDS011;53400;50.364;14.874;2023-03-14T06:58:30;7.97;;;3.78;;
66546;SDS011;53400;50.364;14.874;2023-03-14T07:00:57;7.65;;;4.10;;
66546;SDS011;53400;50.364;14.874;2023-03-14T07:03:24;7.65;;;4.07;;
66546;SDS011;53400;50.364;14.874;2023-03-14T07:05:50;7.10;;;3.75;;
66546;SDS011;53400;50.364;14.874;2023-03-14T07:08:16;6.78;;;3.20;;
66546;SDS011;53400;50.364;14.874;2023-03-14T07:10:42;8.77;;;3.58;;
66546;SDS011;53400;50.364;14.874;2023-03-14T07:13:08;6.47;;;3.20;;
66546;SDS011;53400;50.364;14.874;2023-03-14T07:15:34;6.90;;;3.35;;
66546;SDS011;53400;50.364;14.874;2023-03-14T07:18:02;7.20;;;3.28;;
66546;SDS011;53400;50.364;14.874;2023-03-14T07:20:28;7.95;;;4.05;;
66546;SDS011;53400;50.364;14.874;2023-03-14T07:22:55;7.07;;;3.55;;
66546;SDS011;53400;50.364;14.874;2023-03-14T07:25:21;7.95;;;3.55;;
66546;SDS011;53400;50.364;14.874;2023-03-14T07:27:48;7.15;;;3.47;;
66546;SDS011;53400;50.364;14.874;2023-03-14T07:30:14;7.90;;;2.97;;
66546;SDS011;53400;50.364;14.874;2023-03-14T07:32:40;6.78;;;2.88;;
66546;SDS011;53400;50.364;14.874;2023-03-14T07:35:08;6.05;;;3.15;;
66546;SDS011;53400;50.364;14.874;2023-03-14T07:37:34;6.88;;;3.30;;
66546;SDS011;53400;50.364;14.874;2023-03-14T07:40:00;11.88;;;6.90;;
66546;SDS011;53400;50.364;14.874;2023-03-14T07:42:26;12.23;;;7.00;;
66546;SDS011;53400;50.364;14.874;2023-03-14T07:44:52;10.13;;;6.15;;
66546;SDS011;53400;50.364;14.874;2023-03-14T07:47:18;11.05;;;6.10;;
66546;SDS011;53400;50.364;14.874;2023-03-14T07:49:44;12.75;;;6.40;;
66546;SDS011;53400;50.364;14.874;2023-03-14T07:52:11;13.88;;;6.78;;
66546;SDS011;53400;50.364;14.874;2023-03-14T07:54:37;10.35;;;6.05;;
66546;SDS011;53400;50.364;14.874;2023-03-14T07:57:03;10.20;;;6.35;;
66546;SDS011;53400;50.364;14.874;2023-03-14T07:59:29;11.45;;;6.53;;
66546;SDS011;53400;50.364;14.874;2023-03-14T08:01:55;9.82;;;5.28;;
66546;SDS011;53400;50.364;14.874;2023-03-14T08:04:21;8.43;;;4.32;;
66546;SDS011;53400;50.364;14.874;2023-03-14T08:06:50;8.90;;;3.55;;
66546;SDS011;53400;50.364;14.874;2023-03-14T08:09:18;6.40;;;2.97;;
66546;SDS011;53400;50.364;14.874;2023-03-14T08:11:44;6.90;;;3.35;;
66546;SDS011;53400;50.364;14.874;2023-03-14T08:14:10;7.30;;;3.00;;
66546;SDS011;53400;50.364;14.874;2023-03-14T08:16:36;6.43;;;2.75;;
66546;SDS011;53400;50.364;14.874;2023-03-14T08:19:02;6.13;;;2.80;;
66546;SDS011;53400;50.364;14.874;2023-03-14T08:21:29;5.30;;;2.13;;
66546;SDS011;53400;50.364;14.874;2023-03-14T08:23:55;6.47;;;2.40;;
66546;SDS011;53400;50.364;14.874;2023-03-14T08:26:23;5.18;;;2.63;;
66546;SDS011;53400;50.364;14.874;2023-03-14T08:28:49;4.55;;;1.85;;
66546;SDS011;53400;50.364;14.874;2023-03-14T08:31:15;4.47;;;1.67;;
66546;SDS011;53400;50.364;14.874;2023-03-14T08:33:40;4.85;;;1.58;;
66546;SDS011;53400;50.364;14.874;2023-03-14T08:36:07;4.60;;;1.80;;
66546;SDS011;53400;50.364;14.874;2023-03-14T08:38:33;4.70;;;1.60;;
66546;SDS011;53400;50.364;14.874;2023-03-14T08:40:59;6.78;;;2.05;;
66546;SDS011;53400;50.364;14.874;2023-03-14T08:43:28;5.43;;;1.85;;
66546;SDS011;53400;50.364;14.874;2023-03-14T08:45:56;5.40;;;1.65;;
66546;SDS011;53400;50.364;14.874;2023-03-14T08:48:23;5.68;;;1.85;;
66546;SDS011;53400;50.364;14.874;2023-03-14T08:50:49;4.07;;;1.48;;
66546;SDS011;53400;50.364;14.874;2023-03-14T08:53:15;4.40;;;1.63;;
66546;SDS011;53400;50.364;14.874;2023-03-14T08:55:41;6.13;;;1.95;;
66546;SDS011;53400;50.364;14.874;2023-03-14T08:58:07;5.93;;;1.88;;
66546;SDS011;53400;50.364;14.874;2023-03-14T09:00:34;5.40;;;1.55;;
66546;SDS011;53400;50.364;14.874;2023-03-14T09:03:01;5.53;;;1.67;;
66546;SDS011;53400;50.364;14.874;2023-03-14T09:05:27;3.40;;;1.00;;
66546;SDS011;53400;50.364;14.874;2023-03-14T09:07:52;4.10;;;1.02;;
66546;SDS011;53400;50.364;14.874;2023-03-14T09:10:19;4.10;;;0.90;;
66546;SDS011;53400;50.364;14.874;2023-03-14T09:12:45;1.60;;;0.70;;
66546;SDS011;53400;50.364;14.874;2023-03-14T09:15:11;2.65;;;0.88;;
66546;SDS011;53400;50.364;14.874;2023-03-14T09:17:38;1.10;;;0.70;;
66546;SDS011;53400;50.364;14.874;2023-03-14T09:20:04;2.85;;;0.85;;
66546;SDS011;53400;50.364;14.874;2023-03-14T09:22:32;1.85;;;0.90;;
66546;SDS011;53400;50.364;14.874;2023-03-14T09:24:59;3.65;;;1.10;;
66546;SDS011;53400;50.364;14.874;2023-03-14T09:27:24;1.88;;;0.80;;
66546;SDS011;53400;50.364;14.874;2023-03-14T09:29:50;2.47;;;0.85;;
66546;SDS011;53400;50.364;14.874;2023-03-14T09:32:16;1.67;;;0.68;;
66546;SDS011;53400;50.364;14.874;2023-03-14T09:34:43;2.60;;;0.70;;
66546;SDS011;53400;50.364;14.874;2023-03-14T09:37:09;1.58;;;0.70;;
66546;SDS011;53400;50.364;14.874;2023-03-14T09:39:35;2.83;;;0.85;;
66546;SDS011;53400;50.364;14.874;2023-03-14T09:42:02;2.85;;;0.70;;
66546;SDS011;53400;50.364;14.874;2023-03-14T09:44:33;1.80;;;0.70;;
66546;SDS011;53400;50.364;14.874;2023-03-14T09:47:02;5.72;;;0.90;;
66546;SDS011;53400;50.364;14.874;2023-03-14T09:49:32;3.53;;;0.90;;
66546;SDS011;53400;50.364;14.874;2023-03-14T09:52:02;2.15;;;0.73;;
66546;SDS011;53400;50.364;14.874;2023-03-14T09:54:34;3.22;;;0.80;;
66546;SDS011;53400;50.364;14.874;2023-03-14T09:57:01;2.17;;;0.80;;
66546;SDS011;53400;50.364;14.874;2023-03-14T09:59:28;2.45;;;0.80;;
66546;SDS011;53400;50.364;14.874;2023-03-14T10:01:56;2.33;;;0.93;;
66546;SDS011;53400;50.364;14.874;2023-03-14T10:04:25;2.20;;;0.63;;
66546;SDS011;53400;50.364;14.874;2023-03-14T10:06:53;2.25;;;0.70;;
66546;SDS011;53400;50.364;14.874;2023-03-14T10:09:22;1.17;;;0.80;;
66546;SDS011;53400;50.364;14.874;2023-03-14T10:11:53;1.48;;;0.63;;
66546;SDS011;53400;50.364;14.874;2023-03-14T10:14:30;1.77;;;0.70;;
66546;SDS011;53400;50.364;14.874;2023-03-14T10:17:04;2.25;;;0.90;;
66546;SDS011;53400;50.364;14.874;2023-03-14T10:19:32;3.15;;;0.93;;
66546;SDS011;53400;50.364;14.874;2023-03-14T10:22:00;3.40;;;0.90;;
66546;SDS011;53400;50.364;14.874;2023-03-14T10:24:30;2.65;;;0.80;;
66546;SDS011;53400;50.364;14.874;2023-03-14T10:26:58;1.45;;;0.80;;
66546;SDS011;53400;50.364;14.874;2023-03-14T10:29:28;3.65;;;1.10;;
66546;SDS011;53400;50.364;14.874;2023-03-14T10:31:54;1.67;;;0.60;;
66546;SDS011;53400;50.364;14.874;2023-03-14T10:34:24;2.72;;;0.90;;
66546;SDS011;53400;50.364;14.874;2023-03-14T10:36:52;2.30;;;0.70;;
66546;SDS011;53400;50.364;14.874;2023-03-14T10:42:12;2.25;;;0.80;;
66546;SDS011;53400;50.364;14.874;2023-03-14T10:44:43;2.45;;;0.80;;
66546;SDS011;53400;50.364;14.874;2023-03-14T10:47:14;4.70;;;1.33;;
66546;SDS011;53400;50.364;14.874;2023-03-14T10:49:43;4.30;;;1.13;;
66546;SDS011;53400;50.364;14.874;2023-03-14T10:52:14;3.17;;;0.90;;
66546;SDS011;53400;50.364;14.874;2023-03-14T10:54:47;2.63;;;0.88;;
66546;SDS011;53400;50.364;14.874;2023-03-14T10:57:14;1.63;;;0.73;;
66546;SDS011;53400;50.364;14.874;2023-03-14T10:59:41;2.35;;;0.85;;
66546;SDS011;53400;50.364;14.874;2023-03-14T11:02:13;2.95;;;0.90;;
66546;SDS011;53400;50.364;14.874;2023-03-14T11:04:55;3.83;;;0.93;;
66546;SDS011;53400;50.364;14.874;2023-03-14T11:07:30;1.52;;;0.70;;
66546;SDS011;53400;50.364;14.874;2023-03-14T11:10:04;3.10;;;1.00;;
66546;SDS011;53400;50.364;14.874;2023-03-14T11:12:41;3.78;;;0.93;;
66546;SDS011;53400;50.364;14.874;2023-03-14T11:15:20;1.95;;;0.80;;
66546;SDS011;53400;50.364;14.874;2023-03-14T11:17:53;3.10;;;0.93;;
66546;SDS011;53400;50.364;14.874;2023-03-14T11:20:44;4.82;;;1.20;;
66546;SDS011;53400;50.364;14.874;2023-03-14T11:23:16;3.53;;;0.82;;
66546;SDS011;53400;50.364;14.874;2023-03-14T11:25:49;2.83;;;0.80;;
66546;SDS011;53400;50.364;14.874;2023-03-14T11:28:22;2.78;;;0.80;;
66546;SDS011;53400;50.364;14.874;2023-03-14T11:30:57;2.50;;;0.95;;
66546;SDS011;53400;50.364;14.874;2023-03-14T11:33:35;3.45;;;1.10;;
66546;SDS011;53400;50.364;14.874;2023-03-14T11:36:04;2.00;;;0.77;;
66546;SDS011;53400;50.364;14.874;2023-03-14T11:38:33;2.15;;;0.80;;
66546;SDS011;53400;50.364;14.874;2023-03-14T11:41:08;1.23;;;0.60;;
66546;SDS011;53400;50.364;14.874;2023-03-14T11:43:39;2.95;;;0.85;;
66546;SDS011;53400;50.364;14.874;2023-03-14T11:46:09;2.67;;;0.80;;
66546;SDS011;53400;50.364;14.874;2023-03-14T11:48:41;2.55;;;0.77;;
66546;SDS011;53400;50.364;14.874;2023-03-14T11:51:12;1.83;;;0.73;;
66546;SDS011;53400;50.364;14.874;2023-03-14T11:53:50;3.92;;;0.90;;
66546;SDS011;53400;50.364;14.874;2023-03-14T11:56:28;2.72;;;1.00;;
66546;SDS011;53400;50.364;14.874;2023-03-14T11:58:59;3.72;;;1.10;;
66546;SDS011;53400;50.364;14.874;2023-03-14T12:01:32;3.58;;;1.00;;
66546;SDS011;53400;50.364;14.874;2023-03-14T12:04:07;4.38;;;1.10;;
66546;SDS011;53400;50.364;14.874;2023-03-14T12:06:40;2.25;;;1.02;;
66546;SDS011;53400;50.364;14.874;2023-03-14T12:09:13;4.55;;;1.20;;
66546;SDS011;53400;50.364;14.874;2023-03-14T12:11:44;5.00;;;1.15;;
66546;SDS011;53400;50.364;14.874;2023-03-14T12:14:20;4.75;;;1.40;;
66546;SDS011;53400;50.364;14.874;2023-03-14T12:16:49;3.05;;;1.10;;
66546;SDS011;53400;50.364;14.874;2023-03-14T12:19:26;4.32;;;1.33;;
66546;SDS011;53400;50.364;14.874;2023-03-14T12:24:23;3.78;;;1.20;;
66546;SDS011;53400;50.364;14.874;2023-03-14T12:26:54;6.45;;;1.73;;
66546;SDS011;53400;50.364;14.874;2023-03-14T12:29:21;4.00;;;1.55;;
66546;SDS011;53400;50.364;14.874;2023-03-14T12:31:47;4.75;;;1.17;;
66546;SDS011;53400;50.364;14.874;2023-03-14T12:34:27;2.50;;;0.95;;
66546;SDS011;53400;50.364;14.874;2023-03-14T12:36:59;3.20;;;0.95;;
66546;SDS011;53400;50.364;14.874;2023-03-14T12:39:33;4.40;;;1.00;;
66546;SDS011;53400;50.364;14.874;2023-03-14T12:42:13;1.92;;;0.95;;
66546;SDS011;53400;50.364;14.874;2023-03-14T12:44:46;3.35;;;0.88;;
66546;SDS011;53400;50.364;14.874;2023-03-14T12:50:15;2.17;;;0.80;;
66546;SDS011;53400;50.364;14.874;2023-03-14T12:52:48;1.90;;;0.82;;
66546;SDS011;53400;50.364;14.874;2023-03-14T12:55:36;3.35;;;1.00;;
66546;SDS011;53400;50.364;14.874;2023-03-14T12:58:12;3.83;;;1.02;;
66546;SDS011;53400;50.364;14.874;2023-03-14T13:00:42;3.75;;;0.98;;
66546;SDS011;53400;50.364;14.874;2023-03-14T13:03:15;2.05;;;0.88;;
66546;SDS011;53400;50.364;14.874;2023-03-14T13:05:54;1.60;;;0.77;;
66546;SDS011;53400;50.364;14.874;2023-03-14T13:08:32;2.97;;;0.80;;
66546;SDS011;53400;50.364;14.874;2023-03-14T13:11:04;2.25;;;0.77;;
66546;SDS011;53400;50.364;14.874;2023-03-14T13:13:35;2.40;;;0.90;;
66546;SDS011;53400;50.364;14.874;2023-03-14T13:16:06;1.85;;;0.70;;
66546;SDS011;53400;50.364;14.874;2023-03-14T13:18:36;1.70;;;0.75;;
66546;SDS011;53400;50.364;14.874;2023-03-14T13:21:06;2.95;;;0.85;;
66546;SDS011;53400;50.364;14.874;2023-03-14T13:23:37;3.25;;;1.00;;
66546;SDS011;53400;50.364;14.874;2023-03-14T13:26:03;2.70;;;0.80;;
66546;SDS011;53400;50.364;14.874;2023-03-14T13:28:37;1.75;;;0.73;;
66546;SDS011;53400;50.364;14.874;2023-03-14T13:31:03;2.10;;;0.77;;
66546;SDS011;53400;50.364;14.874;2023-03-14T13:33:32;3.03;;;0.95;;
66546;SDS011;53400;50.364;14.874;2023-03-14T13:35:59;3.08;;;0.93;;
66546;SDS011;53400;50.364;14.874;2023-03-14T13:38:28;3.03;;;0.80;;
66546;SDS011;53400;50.364;14.874;2023-03-14T13:40:55;4.45;;;0.90;;
66546;SDS011;53400;50.364;14.874;2023-03-14T13:43:27;2.20;;;0.80;;
66546;SDS011;53400;50.364;14.874;2023-03-14T13:46:01;2.22;;;0.80;;
66546;SDS011;53400;50.364;14.874;2023-03-14T13:48:29;3.60;;;1.00;;
66546;SDS011;53400;50.364;14.874;2023-03-14T13:50:58;3.55;;;1.02;;
66546;SDS011;53400;50.364;14.874;2023-03-14T13:53:27;4.63;;;1.20;;
66546;SDS011;53400;50.364;14.874;2023-03-14T13:55:53;3.97;;;1.33;;
66546;SDS011;53400;50.364;14.874;2023-03-14T13:58:21;4.07;;;1.08;;
66546;SDS011;53400;50.364;14.874;2023-03-14T14:00:55;2.30;;;0.98;;
66546;SDS011;53400;50.364;14.874;2023-03-14T14:03:25;2.95;;;0.95;;
66546;SDS011;53400;50.364;14.874;2023-03-14T14:05:51;2.85;;;0.90;;
66546;SDS011;53400;50.364;14.874;2023-03-14T14:08:19;3.10;;;0.90;;
66546;SDS011;53400;50.364;14.874;2023-03-14T14:10:45;2.60;;;0.93;;
66546;SDS011;53400;50.364;14.874;2023-03-14T14:13:15;2.95;;;0.90;;
66546;SDS011;53400;50.364;14.874;2023-03-14T14:15:46;4.18;;;0.85;;
66546;SDS011;53400;50.364;14.874;2023-03-14T14:18:16;3.20;;;0.80;;
66546;SDS011;53400;50.364;14.874;2023-03-14T14:20:46;1.83;;;0.70;;
66546;SDS011;53400;50.364;14.874;2023-03-14T14:23:14;2.03;;;0.70;;
66546;SDS011;53400;50.364;14.874;2023-03-14T14:25:42;2.30;;;0.75;;
66546;SDS011;53400;50.364;14.874;2023-03-14T14:28:15;3.50;;;1.00;;
66546;SDS011;53400;50.364;14.874;2023-03-14T14:30:43;3.58;;;0.98;;
66546;SDS011;53400;50.364;14.874;2023-03-14T14:33:18;3.83;;;1.10;;
66546;SDS011;53400;50.364;14.874;2023-03-14T14:35:50;1.75;;;0.70;;
66546;SDS011;53400;50.364;14.874;2023-03-14T14:38:17;2.88;;;0.80;;
66546;SDS011;53400;50.364;14.874;2023-03-14T14:40:46;2.67;;;0.82;;
66546;SDS011;53400;50.364;14.874;2023-03-14T14:43:16;2.45;;;0.65;;
66546;SDS011;53400;50.364;14.874;2023-03-14T14:45:44;1.95;;;0.77;;